createdAt,value
2018-01-20T00:00:03.089Z,2.02
2018-01-20T00:00:07.014Z,2.03
2018-01-20T00:00:10.810Z,2.03
2018-01-20T00:00:14.831Z,2.03
2018-01-20T00:00:18.855Z,2.02
2018-01-20T00:00:22.778Z,2.02
2018-01-20T00:00:27.011Z,2.02
2018-01-20T00:00:30.825Z,2.02
2018-01-20T00:00:34.754Z,2.02
2018-01-20T00:00:38.988Z,2.02
2018-01-20T00:00:42.786Z,2.01
2018-01-20T00:00:46.821Z,2.02
2018-01-20T00:00:50.720Z,2.01
2018-01-20T00:00:54.521Z,2.01
2018-01-20T00:00:58.740Z,2.01
2018-01-20T00:01:02.921Z,2.01
2018-01-20T00:01:06.634Z,2.02
2018-01-20T00:01:10.550Z,2.01
2018-01-20T00:01:14.341Z,2.01
2018-01-20T00:01:18.448Z,2
2018-01-20T00:01:22.258Z,2
2018-01-20T00:01:26.280Z,2.01
2018-01-20T00:01:30.405Z,2
2018-01-20T00:01:34.425Z,2
2018-01-20T00:01:38.450Z,2.01
2018-01-20T00:01:42.364Z,2
2018-01-20T00:01:46.392Z,2.01
2018-01-20T00:01:50.426Z,1.99
2018-01-20T00:01:54.334Z,2
2018-01-20T00:01:58.132Z,2
2018-01-20T00:02:02.137Z,2
2018-01-20T00:02:06.051Z,2
2018-01-20T00:02:10.079Z,1.99
2018-01-20T00:02:13.985Z,1.99
2018-01-20T00:02:18.220Z,1.99
2018-01-20T00:02:22.115Z,1.99
2018-01-20T00:02:26.020Z,1.99
2018-01-20T00:02:29.825Z,1.99
2018-01-20T00:02:33.750Z,1.98
2018-01-20T00:02:37.877Z,1.98
2018-01-20T00:02:41.780Z,1.97
2018-01-20T00:02:45.685Z,1.98
2018-01-20T00:02:49.603Z,1.97
2018-01-20T00:02:53.520Z,1.97
2018-01-20T00:02:57.440Z,1.96
2018-01-20T00:03:01.145Z,1.96
2018-01-20T00:03:05.307Z,1.96
2018-01-20T00:03:09.226Z,1.95
2018-01-20T00:03:13.267Z,1.95
2018-01-20T00:03:17.066Z,1.96
2018-01-20T00:03:20.971Z,1.94
2018-01-20T00:03:24.982Z,1.95
2018-01-20T00:03:28.793Z,1.95
2018-01-20T00:03:32.806Z,1.94
2018-01-20T00:03:36.727Z,1.94
2018-01-20T00:03:40.638Z,1.93
2018-01-20T00:03:44.548Z,1.93
2018-01-20T00:03:48.480Z,1.93
2018-01-20T00:03:52.185Z,1.93
2018-01-20T00:03:55.895Z,1.93
2018-01-20T00:03:59.811Z,1.92
2018-01-20T00:04:04.342Z,1.92
2018-01-20T00:04:08.143Z,1.92
2018-01-20T00:04:11.957Z,1.91
2018-01-20T00:04:15.976Z,1.91
2018-01-20T00:04:20.213Z,1.9
2018-01-20T00:04:24.024Z,1.9
2018-01-20T00:04:28.254Z,1.89
2018-01-20T00:04:32.170Z,1.9
2018-01-20T00:04:35.876Z,1.89
2018-01-20T00:04:39.684Z,1.9
2018-01-20T00:04:43.594Z,1.89
2018-01-20T00:04:47.727Z,1.89
2018-01-20T00:04:51.536Z,1.89
2018-01-20T00:04:55.230Z,1.88
2018-01-20T00:04:59.238Z,1.87
2018-01-20T00:05:03.252Z,1.88
2018-01-20T00:05:06.950Z,1.88
2018-01-20T00:05:10.753Z,1.88
2018-01-20T00:05:14.767Z,1.87
2018-01-20T00:05:18.790Z,1.87
2018-01-20T00:05:23.008Z,1.86
2018-01-20T00:05:27.133Z,1.86
2018-01-20T00:05:31.264Z,1.86
2018-01-20T00:05:35.371Z,1.86
2018-01-20T00:05:39.266Z,1.86
2018-01-20T00:05:43.176Z,1.86
2018-01-20T00:05:47.081Z,1.86
2018-01-20T00:05:50.802Z,1.85
2018-01-20T00:05:54.711Z,1.84
2018-01-20T00:05:58.514Z,1.84
2018-01-20T00:06:02.630Z,1.85
2018-01-20T00:06:06.435Z,1.84
2018-01-20T00:06:10.239Z,1.84
2018-01-20T00:06:14.268Z,1.84
2018-01-20T00:06:18.298Z,1.83
2018-01-20T00:06:22.331Z,1.82
2018-01-20T00:06:26.568Z,1.83
2018-01-20T00:06:30.687Z,1.82
2018-01-20T00:06:34.503Z,1.82
2018-01-20T00:06:38.411Z,1.81
2018-01-20T00:06:42.535Z,1.83
2018-01-20T00:06:46.458Z,1.82
2018-01-20T00:06:50.606Z,1.82
2018-01-20T00:06:54.529Z,1.81
2018-01-20T00:06:58.425Z,1.81
2018-01-20T00:07:02.225Z,1.81
2018-01-20T00:07:06.346Z,1.8
2018-01-20T00:07:10.254Z,1.8
2018-01-20T00:07:14.196Z,1.79
2018-01-20T00:07:18.012Z,1.78
2018-01-20T00:07:22.025Z,1.79
2018-01-20T00:07:26.171Z,1.78
2018-01-20T00:07:30.083Z,1.79
2018-01-20T00:07:33.983Z,1.78
2018-01-20T00:07:38.106Z,1.79
2018-01-20T00:07:41.907Z,1.78
2018-01-20T00:07:45.917Z,1.78
2018-01-20T00:07:49.937Z,1.77
2018-01-20T00:07:53.751Z,1.78
2018-01-20T00:07:57.644Z,1.77
2018-01-20T00:08:01.555Z,1.77
2018-01-20T00:08:05.480Z,1.77
2018-01-20T00:08:09.279Z,1.76
2018-01-20T00:08:13.079Z,1.77
2018-01-20T00:08:16.891Z,1.76
2018-01-20T00:08:20.804Z,1.76
2018-01-20T00:08:25.036Z,1.77
2018-01-20T00:08:28.950Z,1.76
2018-01-20T00:08:33.168Z,1.76
2018-01-20T00:08:37.288Z,1.75
2018-01-20T00:08:41.304Z,1.75
2018-01-20T00:08:45.219Z,1.76
2018-01-20T00:08:49.147Z,1.75
2018-01-20T00:08:52.849Z,1.74
2018-01-20T00:08:56.868Z,1.74
2018-01-20T00:09:00.990Z,1.74
2018-01-20T00:09:04.800Z,1.74
2018-01-20T00:09:08.603Z,1.74
2018-01-20T00:09:12.423Z,1.74
2018-01-20T00:09:16.340Z,1.73
2018-01-20T00:09:20.699Z,1.72
2018-01-20T00:09:24.615Z,1.73
2018-01-20T00:09:28.525Z,1.73
2018-01-20T00:09:32.438Z,1.73
2018-01-20T00:09:36.151Z,1.72
2018-01-20T00:09:39.952Z,1.72
2018-01-20T00:09:43.872Z,1.72
2018-01-20T00:09:47.984Z,1.72
2018-01-20T00:09:51.684Z,1.72
2018-01-20T00:09:55.598Z,1.71
2018-01-20T00:09:59.822Z,1.71
2018-01-20T00:10:03.938Z,1.71
2018-01-20T00:10:08.164Z,1.71
2018-01-20T00:10:12.290Z,1.7
2018-01-20T00:10:16.296Z,1.71
2018-01-20T00:10:20.320Z,1.7
2018-01-20T00:10:24.349Z,1.71
2018-01-20T00:10:28.256Z,1.7
2018-01-20T00:10:32.383Z,1.7
2018-01-20T00:10:36.395Z,1.68
2018-01-20T00:10:40.531Z,1.7
2018-01-20T00:10:44.435Z,1.68
2018-01-20T00:10:48.351Z,1.69
2018-01-20T00:10:52.474Z,1.68
2018-01-20T00:10:56.178Z,1.68
2018-01-20T00:10:59.983Z,1.67
2018-01-20T00:11:04.365Z,1.67
2018-01-20T00:11:08.174Z,1.67
2018-01-20T00:11:11.988Z,1.66
2018-01-20T00:11:15.917Z,1.66
2018-01-20T00:11:19.947Z,1.66
2018-01-20T00:11:23.869Z,1.66
2018-01-20T00:11:27.887Z,1.65
2018-01-20T00:11:31.811Z,1.66
2018-01-20T00:11:35.626Z,1.65
2018-01-20T00:11:39.644Z,1.65
2018-01-20T00:11:43.767Z,1.65
2018-01-20T00:11:47.671Z,1.64
2018-01-20T00:11:51.579Z,1.64
2018-01-20T00:11:55.477Z,1.64
2018-01-20T00:11:59.276Z,1.63
2018-01-20T00:12:03.304Z,1.64
2018-01-20T00:12:07.420Z,1.64
2018-01-20T00:12:11.326Z,1.63
2018-01-20T00:12:15.031Z,1.63
2018-01-20T00:12:19.047Z,1.62
2018-01-20T00:12:22.942Z,1.63
2018-01-20T00:12:26.866Z,1.62
2018-01-20T00:12:30.984Z,1.61
2018-01-20T00:12:34.889Z,1.62
2018-01-20T00:12:38.917Z,1.61
2018-01-20T00:12:42.829Z,1.61
2018-01-20T00:12:46.629Z,1.62
2018-01-20T00:12:50.553Z,1.6
2018-01-20T00:12:54.370Z,1.61
2018-01-20T00:12:58.323Z,1.6
2018-01-20T00:13:02.229Z,1.59
2018-01-20T00:13:06.031Z,1.59
2018-01-20T00:13:10.265Z,1.6
2018-01-20T00:13:14.086Z,1.6
2018-01-20T00:13:18.207Z,1.6
2018-01-20T00:13:22.336Z,1.59
2018-01-20T00:13:26.194Z,1.59
2018-01-20T00:13:30.328Z,1.59
2018-01-20T00:13:34.028Z,1.59
2018-01-20T00:13:37.944Z,1.58
2018-01-20T00:13:41.667Z,1.57
2018-01-20T00:13:45.672Z,1.58
2018-01-20T00:13:49.680Z,1.57
2018-01-20T00:13:53.598Z,1.57
2018-01-20T00:13:57.422Z,1.57
2018-01-20T00:14:01.344Z,1.56
2018-01-20T00:14:05.162Z,1.56
2018-01-20T00:14:09.176Z,1.56
2018-01-20T00:14:12.981Z,1.55
2018-01-20T00:14:17.206Z,1.55
2018-01-20T00:14:21.005Z,1.55
2018-01-20T00:14:24.833Z,1.54
2018-01-20T00:14:28.545Z,1.54
2018-01-20T00:14:32.553Z,1.54
2018-01-20T00:14:36.491Z,1.54
2018-01-20T00:14:40.213Z,1.54
2018-01-20T00:14:44.038Z,1.53
2018-01-20T00:14:48.172Z,1.53
2018-01-20T00:14:52.195Z,1.53
2018-01-20T00:14:56.208Z,1.53
2018-01-20T00:15:00.127Z,1.53
2018-01-20T00:15:03.932Z,1.53
2018-01-20T00:15:07.829Z,1.53
2018-01-20T00:15:11.740Z,1.52
2018-01-20T00:15:15.655Z,1.51
2018-01-20T00:15:19.674Z,1.52
2018-01-20T00:15:23.698Z,1.52
2018-01-20T00:15:27.611Z,1.52
2018-01-20T00:15:31.618Z,1.51
2018-01-20T00:15:35.543Z,1.52
2018-01-20T00:15:39.233Z,1.5
2018-01-20T00:15:43.145Z,1.5
2018-01-20T00:15:47.276Z,1.51
2018-01-20T00:15:51.192Z,1.51
2018-01-20T00:15:54.976Z,1.51
2018-01-20T00:15:58.990Z,1.5
2018-01-20T00:16:02.960Z,1.49
2018-01-20T00:16:06.884Z,1.5
2018-01-20T00:16:11.001Z,1.49
2018-01-20T00:16:15.254Z,1.49
2018-01-20T00:16:19.282Z,1.5
2018-01-20T00:16:23.308Z,1.49
2018-01-20T00:16:27.221Z,1.49
2018-01-20T00:16:31.131Z,1.48
2018-01-20T00:16:34.825Z,1.49
2018-01-20T00:16:38.753Z,1.49
2018-01-20T00:16:42.561Z,1.49
2018-01-20T00:16:46.365Z,1.48
2018-01-20T00:16:50.177Z,1.47
2018-01-20T00:16:53.874Z,1.49
2018-01-20T00:16:57.785Z,1.49
2018-01-20T00:17:02.009Z,1.48
2018-01-20T00:17:06.177Z,1.47
2018-01-20T00:17:10.103Z,1.48
2018-01-20T00:17:13.914Z,1.47
2018-01-20T00:17:18.137Z,1.48
2018-01-20T00:17:22.151Z,1.46
2018-01-20T00:17:25.843Z,1.47
2018-01-20T00:17:29.539Z,1.47
2018-01-20T00:17:33.457Z,1.47
2018-01-20T00:17:37.582Z,1.47
2018-01-20T00:17:41.496Z,1.47
2018-01-20T00:17:45.500Z,1.47
2018-01-20T00:17:49.613Z,1.46
2018-01-20T00:17:53.426Z,1.47
2018-01-20T00:17:57.221Z,1.46
2018-01-20T00:18:01.121Z,1.46
2018-01-20T00:18:05.281Z,1.46
2018-01-20T00:18:09.095Z,1.46
2018-01-20T00:18:12.911Z,1.47
2018-01-20T00:18:16.936Z,1.46
2018-01-20T00:18:20.952Z,1.47
2018-01-20T00:18:24.863Z,1.46
2018-01-20T00:18:28.786Z,1.47
2018-01-20T00:18:32.604Z,1.46
2018-01-20T00:18:36.402Z,1.47
2018-01-20T00:18:40.101Z,1.46
2018-01-20T00:18:44.109Z,1.47
2018-01-20T00:18:48.039Z,1.46
2018-01-20T00:18:51.951Z,1.47
2018-01-20T00:18:55.766Z,1.46
2018-01-20T00:18:59.687Z,1.46
2018-01-20T00:19:03.968Z,1.46
2018-01-20T00:19:07.871Z,1.47
2018-01-20T00:19:11.897Z,1.47
2018-01-20T00:19:15.911Z,1.46
2018-01-20T00:19:19.934Z,1.47
2018-01-20T00:19:23.848Z,1.47
2018-01-20T00:19:27.677Z,1.47
2018-01-20T00:19:31.693Z,1.47
2018-01-20T00:19:35.706Z,1.47
2018-01-20T00:19:39.621Z,1.48
2018-01-20T00:19:43.338Z,1.48
2018-01-20T00:19:47.131Z,1.48
2018-01-20T00:19:50.945Z,1.47
2018-01-20T00:19:54.860Z,1.47
2018-01-20T00:19:59.034Z,1.47
2018-01-20T00:20:03.164Z,1.47
2018-01-20T00:20:06.861Z,1.47
2018-01-20T00:20:10.683Z,1.47
2018-01-20T00:20:14.705Z,1.48
2018-01-20T00:20:18.424Z,1.48
2018-01-20T00:20:22.340Z,1.47
2018-01-20T00:20:26.365Z,1.48
2018-01-20T00:20:30.275Z,1.47
2018-01-20T00:20:34.076Z,1.48
2018-01-20T00:20:38.077Z,1.48
2018-01-20T00:20:41.880Z,1.48
2018-01-20T00:20:45.884Z,1.48
2018-01-20T00:20:50.114Z,1.49
2018-01-20T00:20:53.916Z,1.48
2018-01-20T00:20:57.936Z,1.49
2018-01-20T00:21:01.879Z,1.49
2018-01-20T00:21:05.918Z,1.49
2018-01-20T00:21:09.843Z,1.49
2018-01-20T00:21:13.878Z,1.49
2018-01-20T00:21:17.800Z,1.5
2018-01-20T00:21:21.814Z,1.5
2018-01-20T00:21:25.821Z,1.5
2018-01-20T00:21:29.513Z,1.5
2018-01-20T00:21:33.212Z,1.5
2018-01-20T00:21:37.327Z,1.51
2018-01-20T00:21:41.342Z,1.52
2018-01-20T00:21:45.266Z,1.52
2018-01-20T00:21:49.184Z,1.52
2018-01-20T00:21:53.212Z,1.52
2018-01-20T00:21:57.243Z,1.52
2018-01-20T00:22:01.157Z,1.52
2018-01-20T00:22:05.271Z,1.53
2018-01-20T00:22:09.085Z,1.53
2018-01-20T00:22:12.987Z,1.54
2018-01-20T00:22:16.675Z,1.55
2018-01-20T00:22:20.692Z,1.55
2018-01-20T00:22:24.609Z,1.54
2018-01-20T00:22:28.498Z,1.56
2018-01-20T00:22:32.186Z,1.55
2018-01-20T00:22:36.104Z,1.56
2018-01-20T00:22:40.024Z,1.57
2018-01-20T00:22:43.928Z,1.57
2018-01-20T00:22:47.944Z,1.57
2018-01-20T00:22:51.743Z,1.57
2018-01-20T00:22:55.654Z,1.57
2018-01-20T00:22:59.684Z,1.58
2018-01-20T00:23:03.534Z,1.58
2018-01-20T00:23:07.446Z,1.58
2018-01-20T00:23:11.369Z,1.59
2018-01-20T00:23:15.393Z,1.59
2018-01-20T00:23:19.412Z,1.59
2018-01-20T00:23:23.433Z,1.58
2018-01-20T00:23:27.224Z,1.59
2018-01-20T00:23:31.070Z,1.58
2018-01-20T00:23:34.739Z,1.59
2018-01-20T00:23:38.748Z,1.6
2018-01-20T00:23:42.765Z,1.59
2018-01-20T00:23:46.798Z,1.6
2018-01-20T00:23:50.610Z,1.6
2018-01-20T00:23:54.632Z,1.6
2018-01-20T00:23:58.442Z,1.6
2018-01-20T00:24:02.612Z,1.6
2018-01-20T00:24:06.629Z,1.6
2018-01-20T00:24:10.536Z,1.6
2018-01-20T00:24:14.768Z,1.61
2018-01-20T00:24:18.788Z,1.61
2018-01-20T00:24:22.606Z,1.61
2018-01-20T00:24:26.411Z,1.61
2018-01-20T00:24:30.435Z,1.6
2018-01-20T00:24:34.241Z,1.6
2018-01-20T00:24:38.214Z,1.6
2018-01-20T00:24:42.227Z,1.61
2018-01-20T00:24:46.241Z,1.6
2018-01-20T00:24:50.209Z,1.61
2018-01-20T00:24:54.120Z,1.6
2018-01-20T00:24:58.019Z,1.59
2018-01-20T00:25:02.035Z,1.59
2018-01-20T00:25:05.899Z,1.61
2018-01-20T00:25:09.550Z,1.6
2018-01-20T00:25:13.767Z,1.6
2018-01-20T00:25:17.685Z,1.6
2018-01-20T00:25:21.823Z,1.6
2018-01-20T00:25:26.056Z,1.6
2018-01-20T00:25:30.192Z,1.6
2018-01-20T00:25:34.113Z,1.61
2018-01-20T00:25:38.025Z,1.6
2018-01-20T00:25:42.132Z,1.59
2018-01-20T00:25:45.820Z,1.6
2018-01-20T00:25:49.718Z,1.6
2018-01-20T00:25:53.526Z,1.6
2018-01-20T00:25:57.327Z,1.6
2018-01-20T00:26:01.048Z,1.6
2018-01-20T00:26:05.305Z,1.6
2018-01-20T00:26:09.418Z,1.59
2018-01-20T00:26:13.236Z,1.59
2018-01-20T00:26:17.247Z,1.6
2018-01-20T00:26:21.164Z,1.59
2018-01-20T00:26:25.074Z,1.59
2018-01-20T00:26:28.977Z,1.6
2018-01-20T00:26:32.890Z,1.59
2018-01-20T00:26:36.897Z,1.59
2018-01-20T00:26:40.854Z,1.59
2018-01-20T00:26:44.871Z,1.59
2018-01-20T00:26:48.776Z,1.59
2018-01-20T00:26:52.790Z,1.59
2018-01-20T00:26:56.806Z,1.59
2018-01-20T00:27:00.833Z,1.58
2018-01-20T00:27:05.105Z,1.59
2018-01-20T00:27:09.010Z,1.59
2018-01-20T00:27:12.912Z,1.58
2018-01-20T00:27:17.031Z,1.58
2018-01-20T00:27:21.057Z,1.59
2018-01-20T00:27:24.875Z,1.59
2018-01-20T00:27:28.580Z,1.58
2018-01-20T00:27:32.597Z,1.58
2018-01-20T00:27:36.725Z,1.58
2018-01-20T00:27:40.773Z,1.58
2018-01-20T00:27:44.781Z,1.58
2018-01-20T00:27:48.688Z,1.57
2018-01-20T00:27:52.592Z,1.58
2018-01-20T00:27:56.403Z,1.58
2018-01-20T00:28:00.320Z,1.57
2018-01-20T00:28:04.131Z,1.57
2018-01-20T00:28:07.949Z,1.57
2018-01-20T00:28:11.984Z,1.57
2018-01-20T00:28:15.908Z,1.57
2018-01-20T00:28:19.814Z,1.57
2018-01-20T00:28:23.732Z,1.56
2018-01-20T00:28:27.759Z,1.57
2018-01-20T00:28:31.456Z,1.57
2018-01-20T00:28:35.467Z,1.57
2018-01-20T00:28:39.409Z,1.55
2018-01-20T00:28:43.436Z,1.57
2018-01-20T00:28:47.340Z,1.56
2018-01-20T00:28:51.341Z,1.56
2018-01-20T00:28:55.266Z,1.56
2018-01-20T00:28:59.292Z,1.56
2018-01-20T00:29:03.870Z,1.57
2018-01-20T00:29:07.775Z,1.57
2018-01-20T00:29:11.578Z,1.57
2018-01-20T00:29:15.699Z,1.57
2018-01-20T00:29:19.722Z,1.57
2018-01-20T00:29:23.765Z,1.57
2018-01-20T00:29:27.773Z,1.56
2018-01-20T00:29:31.581Z,1.56
2018-01-20T00:29:35.599Z,1.55
2018-01-20T00:29:39.725Z,1.56
2018-01-20T00:29:43.646Z,1.56
2018-01-20T00:29:47.549Z,1.55
2018-01-20T00:29:51.454Z,1.56
2018-01-20T00:29:55.677Z,1.56
2018-01-20T00:29:59.584Z,1.56
2018-01-20T00:30:03.857Z,1.56
2018-01-20T00:30:07.785Z,1.55
2018-01-20T00:30:11.909Z,1.56
2018-01-20T00:30:16.023Z,1.56
2018-01-20T00:30:20.094Z,1.55
2018-01-20T00:30:24.094Z,1.56
2018-01-20T00:30:28.223Z,1.54
2018-01-20T00:30:32.398Z,1.56
2018-01-20T00:30:36.198Z,1.55
2018-01-20T00:30:40.424Z,1.53
2018-01-20T00:30:44.428Z,1.55
2018-01-20T00:30:48.330Z,1.55
2018-01-20T00:30:52.436Z,1.55
2018-01-20T00:30:56.356Z,1.55
2018-01-20T00:31:00.060Z,1.55
2018-01-20T00:31:04.185Z,1.55
2018-01-20T00:31:08.009Z,1.54
2018-01-20T00:31:12.047Z,1.54
2018-01-20T00:31:15.961Z,1.53
2018-01-20T00:31:20.299Z,1.55
2018-01-20T00:31:24.585Z,1.53
2018-01-20T00:31:28.475Z,1.53
2018-01-20T00:31:32.160Z,1.53
2018-01-20T00:31:35.855Z,1.53
2018-01-20T00:31:39.862Z,1.54
2018-01-20T00:31:43.773Z,1.54
2018-01-20T00:31:47.600Z,1.53
2018-01-20T00:31:51.407Z,1.53
2018-01-20T00:31:55.317Z,1.53
2018-01-20T00:31:59.450Z,1.53
2018-01-20T00:32:03.472Z,1.53
2018-01-20T00:32:07.483Z,1.52
2018-01-20T00:32:11.181Z,1.53
2018-01-20T00:32:15.301Z,1.52
2018-01-20T00:32:19.405Z,1.52
2018-01-20T00:32:23.416Z,1.53
2018-01-20T00:32:27.535Z,1.52
2018-01-20T00:32:31.460Z,1.52
2018-01-20T00:32:35.151Z,1.52
2018-01-20T00:32:39.177Z,1.53
2018-01-20T00:32:43.083Z,1.52
2018-01-20T00:32:47.205Z,1.52
2018-01-20T00:32:51.226Z,1.53
2018-01-20T00:32:55.238Z,1.52
2018-01-20T00:32:59.148Z,1.52
2018-01-20T00:33:03.203Z,1.52
2018-01-20T00:33:07.008Z,1.52
2018-01-20T00:33:11.018Z,1.51
2018-01-20T00:33:14.985Z,1.51
2018-01-20T00:33:19.211Z,1.51
2018-01-20T00:33:22.923Z,1.51
2018-01-20T00:33:26.728Z,1.51
2018-01-20T00:33:30.756Z,1.51
2018-01-20T00:33:34.982Z,1.5
2018-01-20T00:33:38.893Z,1.5
2018-01-20T00:33:42.788Z,1.5
2018-01-20T00:33:46.703Z,1.5
2018-01-20T00:33:50.731Z,1.5
2018-01-20T00:33:54.416Z,1.5
2018-01-20T00:33:58.236Z,1.49
2018-01-20T00:34:02.145Z,1.49
2018-01-20T00:34:06.063Z,1.5
2018-01-20T00:34:10.070Z,1.49
2018-01-20T00:34:13.973Z,1.48
2018-01-20T00:34:17.887Z,1.48
2018-01-20T00:34:22.008Z,1.48
2018-01-20T00:34:25.807Z,1.47
2018-01-20T00:34:29.716Z,1.48
2018-01-20T00:34:33.530Z,1.48
2018-01-20T00:34:37.337Z,1.47
2018-01-20T00:34:41.360Z,1.48
2018-01-20T00:34:45.167Z,1.47
2018-01-20T00:34:48.880Z,1.46
2018-01-20T00:34:52.893Z,1.46
2018-01-20T00:34:56.822Z,1.46
2018-01-20T00:35:00.848Z,1.46
2018-01-20T00:35:05.016Z,1.46
2018-01-20T00:35:09.035Z,1.46
2018-01-20T00:35:13.047Z,1.45
2018-01-20T00:35:16.741Z,1.46
2018-01-20T00:35:20.750Z,1.45
2018-01-20T00:35:24.755Z,1.44
2018-01-20T00:35:28.996Z,1.45
2018-01-20T00:35:32.920Z,1.45
2018-01-20T00:35:36.719Z,1.44
2018-01-20T00:35:40.827Z,1.45
2018-01-20T00:35:44.842Z,1.45
2018-01-20T00:35:48.843Z,1.44
2018-01-20T00:35:52.750Z,1.45
2018-01-20T00:35:56.466Z,1.44
2018-01-20T00:36:00.276Z,1.44
2018-01-20T00:36:04.290Z,1.45
2018-01-20T00:36:08.092Z,1.44
2018-01-20T00:36:12.111Z,1.44
2018-01-20T00:36:16.358Z,1.43
2018-01-20T00:36:20.485Z,1.43
2018-01-20T00:36:24.613Z,1.43
2018-01-20T00:36:28.319Z,1.43
2018-01-20T00:36:32.118Z,1.43
2018-01-20T00:36:36.140Z,1.43
2018-01-20T00:36:40.161Z,1.43
2018-01-20T00:36:43.981Z,1.42
2018-01-20T00:36:48.112Z,1.43
2018-01-20T00:36:51.911Z,1.43
2018-01-20T00:36:55.919Z,1.42
2018-01-20T00:36:59.718Z,1.43
2018-01-20T00:37:03.933Z,1.42
2018-01-20T00:37:07.635Z,1.43
2018-01-20T00:37:11.658Z,1.43
2018-01-20T00:37:15.872Z,1.43
2018-01-20T00:37:19.779Z,1.43
2018-01-20T00:37:23.798Z,1.43
2018-01-20T00:37:27.903Z,1.43
2018-01-20T00:37:32.035Z,1.43
2018-01-20T00:37:35.741Z,1.43
2018-01-20T00:37:39.650Z,1.43
2018-01-20T00:37:43.361Z,1.42
2018-01-20T00:37:47.166Z,1.43
2018-01-20T00:37:51.078Z,1.42
2018-01-20T00:37:54.981Z,1.43
2018-01-20T00:37:58.696Z,1.43
2018-01-20T00:38:03.174Z,1.42
2018-01-20T00:38:07.093Z,1.43
2018-01-20T00:38:11.149Z,1.43
2018-01-20T00:38:14.958Z,1.43
2018-01-20T00:38:19.191Z,1.43
2018-01-20T00:38:23.009Z,1.42
2018-01-20T00:38:27.029Z,1.43
2018-01-20T00:38:30.956Z,1.42
2018-01-20T00:38:35.088Z,1.43
2018-01-20T00:38:39.225Z,1.43
2018-01-20T00:38:43.136Z,1.42
2018-01-20T00:38:47.040Z,1.42
2018-01-20T00:38:50.954Z,1.42
2018-01-20T00:38:54.763Z,1.42
2018-01-20T00:38:58.551Z,1.42
2018-01-20T00:39:02.670Z,1.43
2018-01-20T00:39:06.377Z,1.41
2018-01-20T00:39:10.289Z,1.43
2018-01-20T00:39:14.198Z,1.42
2018-01-20T00:39:18.211Z,1.41
2018-01-20T00:39:22.338Z,1.42
2018-01-20T00:39:26.460Z,1.42
2018-01-20T00:39:30.486Z,1.41
2018-01-20T00:39:34.605Z,1.41
2018-01-20T00:39:38.615Z,1.41
2018-01-20T00:39:42.636Z,1.42
2018-01-20T00:39:46.550Z,1.41
2018-01-20T00:39:50.683Z,1.41
2018-01-20T00:39:54.587Z,1.42
2018-01-20T00:39:58.506Z,1.42
2018-01-20T00:40:02.548Z,1.4
2018-01-20T00:40:06.359Z,1.42
2018-01-20T00:40:10.379Z,1.42
2018-01-20T00:40:14.291Z,1.41
2018-01-20T00:40:18.308Z,1.42
2018-01-20T00:40:22.231Z,1.41
2018-01-20T00:40:26.038Z,1.41
2018-01-20T00:40:30.043Z,1.43
2018-01-20T00:40:33.955Z,1.42
2018-01-20T00:40:37.774Z,1.42
2018-01-20T00:40:41.854Z,1.43
2018-01-20T00:40:45.867Z,1.43
2018-01-20T00:40:49.782Z,1.42
2018-01-20T00:40:53.800Z,1.42
2018-01-20T00:40:57.709Z,1.43
2018-01-20T00:41:01.424Z,1.41
2018-01-20T00:41:05.544Z,1.42
2018-01-20T00:41:09.461Z,1.43
2018-01-20T00:41:13.472Z,1.42
2018-01-20T00:41:17.282Z,1.41
2018-01-20T00:41:21.497Z,1.42
2018-01-20T00:41:25.420Z,1.41
2018-01-20T00:41:29.534Z,1.42
2018-01-20T00:41:33.438Z,1.43
2018-01-20T00:41:37.138Z,1.42
2018-01-20T00:41:40.952Z,1.42
2018-01-20T00:41:45.000Z,1.43
2018-01-20T00:41:49.134Z,1.42
2018-01-20T00:41:52.939Z,1.42
2018-01-20T00:41:56.756Z,1.42
2018-01-20T00:42:00.784Z,1.42
2018-01-20T00:42:04.698Z,1.41
2018-01-20T00:42:08.716Z,1.42
2018-01-20T00:42:12.726Z,1.4
2018-01-20T00:42:16.724Z,1.4
2018-01-20T00:42:20.841Z,1.4
2018-01-20T00:42:24.770Z,1.42
2018-01-20T00:42:28.695Z,1.4
2018-01-20T00:42:32.661Z,1.41
2018-01-20T00:42:36.583Z,1.4
2018-01-20T00:42:40.597Z,1.4
2018-01-20T00:42:44.425Z,1.41
2018-01-20T00:42:48.763Z,1.4
2018-01-20T00:42:52.883Z,1.4
2018-01-20T00:42:56.790Z,1.4
2018-01-20T00:43:00.906Z,1.4
2018-01-20T00:43:05.165Z,1.4
2018-01-20T00:43:08.958Z,1.39
2018-01-20T00:43:13.115Z,1.4
2018-01-20T00:43:17.130Z,1.4
2018-01-20T00:43:21.243Z,1.4
2018-01-20T00:43:25.574Z,1.4
2018-01-20T00:43:29.488Z,1.39
2018-01-20T00:43:33.598Z,1.39
2018-01-20T00:43:37.415Z,1.39
2018-01-20T00:43:41.551Z,1.39
2018-01-20T00:43:45.585Z,1.38
2018-01-20T00:43:49.615Z,1.39
2018-01-20T00:43:53.596Z,1.39
2018-01-20T00:43:57.296Z,1.38
2018-01-20T00:44:01.322Z,1.39
2018-01-20T00:44:05.540Z,1.38
2018-01-20T00:44:09.360Z,1.38
2018-01-20T00:44:13.386Z,1.38
2018-01-20T00:44:17.411Z,1.38
2018-01-20T00:44:21.421Z,1.38
2018-01-20T00:44:25.426Z,1.37
2018-01-20T00:44:29.338Z,1.38
2018-01-20T00:44:33.362Z,1.37
2018-01-20T00:44:37.369Z,1.37
2018-01-20T00:44:41.091Z,1.37
2018-01-20T00:44:45.006Z,1.37
2018-01-20T00:44:49.009Z,1.37
2018-01-20T00:44:52.811Z,1.37
2018-01-20T00:44:56.816Z,1.37
2018-01-20T00:45:00.744Z,1.36
2018-01-20T00:45:04.867Z,1.36
2018-01-20T00:45:08.781Z,1.36
2018-01-20T00:45:12.691Z,1.35
2018-01-20T00:45:16.828Z,1.35
2018-01-20T00:45:20.856Z,1.35
2018-01-20T00:45:25.087Z,1.35
2018-01-20T00:45:28.893Z,1.35
2018-01-20T00:45:32.920Z,1.35
2018-01-20T00:45:37.257Z,1.36
2018-01-20T00:45:41.164Z,1.34
2018-01-20T00:45:45.176Z,1.34
2018-01-20T00:45:48.876Z,1.34
2018-01-20T00:45:52.887Z,1.34
2018-01-20T00:45:56.911Z,1.33
2018-01-20T00:46:00.821Z,1.33
2018-01-20T00:46:04.849Z,1.33
2018-01-20T00:46:08.774Z,1.33
2018-01-20T00:46:12.682Z,1.32
2018-01-20T00:46:16.690Z,1.33
2018-01-20T00:46:20.506Z,1.32
2018-01-20T00:46:24.425Z,1.32
2018-01-20T00:46:28.334Z,1.32
2018-01-20T00:46:32.243Z,1.32
2018-01-20T00:46:36.270Z,1.31
2018-01-20T00:46:40.293Z,1.3
2018-01-20T00:46:44.103Z,1.3
2018-01-20T00:46:47.789Z,1.31
2018-01-20T00:46:51.500Z,1.3
2018-01-20T00:46:55.338Z,1.29
2018-01-20T00:46:59.140Z,1.3
2018-01-20T00:47:03.140Z,1.3
2018-01-20T00:47:06.843Z,1.3
2018-01-20T00:47:10.654Z,1.3
2018-01-20T00:47:14.882Z,1.3
2018-01-20T00:47:18.792Z,1.29
2018-01-20T00:47:22.811Z,1.28
2018-01-20T00:47:26.847Z,1.29
2018-01-20T00:47:30.540Z,1.29
2018-01-20T00:47:34.551Z,1.28
2018-01-20T00:47:38.347Z,1.28
2018-01-20T00:47:42.061Z,1.27
2018-01-20T00:47:45.753Z,1.27
2018-01-20T00:47:49.984Z,1.27
2018-01-20T00:47:53.693Z,1.27
2018-01-20T00:47:57.601Z,1.27
2018-01-20T00:48:01.626Z,1.26
2018-01-20T00:48:05.527Z,1.26
2018-01-20T00:48:09.538Z,1.26
2018-01-20T00:48:13.763Z,1.25
2018-01-20T00:48:17.894Z,1.25
2018-01-20T00:48:21.792Z,1.25
2018-01-20T00:48:25.882Z,1.25
2018-01-20T00:48:29.792Z,1.25
2018-01-20T00:48:33.589Z,1.24
2018-01-20T00:48:37.402Z,1.24
2018-01-20T00:48:41.220Z,1.24
2018-01-20T00:48:45.230Z,1.23
2018-01-20T00:48:49.400Z,1.22
2018-01-20T00:48:53.329Z,1.22
2018-01-20T00:48:57.224Z,1.22
2018-01-20T00:49:01.148Z,1.22
2018-01-20T00:49:05.061Z,1.22
2018-01-20T00:49:09.058Z,1.21
2018-01-20T00:49:12.869Z,1.21
2018-01-20T00:49:16.984Z,1.21
2018-01-20T00:49:21.028Z,1.2
2018-01-20T00:49:25.091Z,1.21
2018-01-20T00:49:28.863Z,1.2
2018-01-20T00:49:32.562Z,1.2
2018-01-20T00:49:36.584Z,1.2
2018-01-20T00:49:40.400Z,1.19
2018-01-20T00:49:44.499Z,1.19
2018-01-20T00:49:48.520Z,1.18
2018-01-20T00:49:52.419Z,1.19
2018-01-20T00:49:56.546Z,1.18
2018-01-20T00:50:00.342Z,1.18
2018-01-20T00:50:04.502Z,1.18
2018-01-20T00:50:08.523Z,1.17
2018-01-20T00:50:12.453Z,1.17
2018-01-20T00:50:16.475Z,1.16
2018-01-20T00:50:20.185Z,1.17
2018-01-20T00:50:24.406Z,1.16
2018-01-20T00:50:28.193Z,1.16
2018-01-20T00:50:32.195Z,1.15
2018-01-20T00:50:36.113Z,1.15
2018-01-20T00:50:40.016Z,1.15
2018-01-20T00:50:43.938Z,1.14
2018-01-20T00:50:47.768Z,1.14
2018-01-20T00:50:51.689Z,1.13
2018-01-20T00:50:55.808Z,1.13
2018-01-20T00:50:59.716Z,1.13
2018-01-20T00:51:04.080Z,1.13
2018-01-20T00:51:07.890Z,1.12
2018-01-20T00:51:11.687Z,1.12
2018-01-20T00:51:15.589Z,1.12
2018-01-20T00:51:19.700Z,1.11
2018-01-20T00:51:23.713Z,1.1
2018-01-20T00:51:27.726Z,1.1
2018-01-20T00:51:31.743Z,1.11
2018-01-20T00:51:35.976Z,1.1
2018-01-20T00:51:39.893Z,1.1
2018-01-20T00:51:43.589Z,1.1
2018-01-20T00:51:47.506Z,1.09
2018-01-20T00:51:51.425Z,1.1
2018-01-20T00:51:55.561Z,1.09
2018-01-20T00:51:59.363Z,1.09
2018-01-20T00:52:03.374Z,1.09
2018-01-20T00:52:07.183Z,1.08
2018-01-20T00:52:10.886Z,1.08
2018-01-20T00:52:14.803Z,1.08
2018-01-20T00:52:18.927Z,1.07
2018-01-20T00:52:23.153Z,1.07
2018-01-20T00:52:27.064Z,1.06
2018-01-20T00:52:31.191Z,1.07
2018-01-20T00:52:35.114Z,1.06
2018-01-20T00:52:39.020Z,1.05
2018-01-20T00:52:42.927Z,1.05
2018-01-20T00:52:46.960Z,1.05
2018-01-20T00:52:50.870Z,1.05
2018-01-20T00:52:54.774Z,1.04